createdAt,value
2022-12-11T00:00:38.835Z,22.07
2022-12-11T00:01:21.635Z,21.43
2022-12-11T00:02:04.460Z,21.17
2022-12-11T00:02:47.522Z,20.57
2022-12-11T00:03:29.216Z,20.33
2022-12-11T00:04:10.818Z,19.20
2022-12-11T00:04:52.357Z,19.43
2022-12-11T00:05:34.246Z,18.63
2022-12-11T00:06:19.072Z,18.60
2022-12-11T00:07:00.694Z,19.53
2022-12-11T00:07:42.555Z,19.40
2022-12-11T00:08:24.262Z,21.63
2022-12-11T00:09:05.887Z,19.50
2022-12-11T00:09:47.516Z,19.90
2022-12-11T00:10:31.116Z,19.63
2022-12-11T00:11:16.757Z,19.70
2022-12-11T00:11:58.507Z,21.03
2022-12-11T00:12:40.083Z,21.30
2022-12-11T00:13:21.735Z,19.60
2022-12-11T00:14:03.366Z,19.60
2022-12-11T00:14:44.990Z,19.37
2022-12-11T00:15:26.654Z,19.60
2022-12-11T00:16:09.186Z,19.83
2022-12-11T00:16:50.967Z,19.93
2022-12-11T00:17:32.821Z,19.40
2022-12-11T00:18:14.847Z,20.10
2022-12-11T00:18:56.511Z,20.30
2022-12-11T00:19:38.106Z,19.30
2022-12-11T00:20:19.687Z,20.37
2022-12-11T00:21:02.917Z,20.23
2022-12-11T00:21:44.639Z,19.40
2022-12-11T00:22:26.293Z,19.47
2022-12-11T00:23:08.265Z,19.30
2022-12-11T00:23:49.877Z,20.90
2022-12-11T00:24:31.501Z,20.17
2022-12-11T00:25:13.335Z,21.67
2022-12-11T00:25:55.426Z,21.10
2022-12-11T00:26:37.173Z,20.07
2022-12-11T00:27:20.385Z,19.63
2022-12-11T00:28:02.142Z,20.07
2022-12-11T00:28:44.999Z,20.15
2022-12-11T00:29:26.609Z,21.23
2022-12-11T00:30:09.043Z,20.73
2022-12-11T00:30:50.684Z,20.97
2022-12-11T00:31:32.336Z,20.70
2022-12-11T00:32:14.029Z,27.30
2022-12-11T00:32:55.652Z,28.87
2022-12-11T00:33:37.243Z,28.63
2022-12-11T00:34:18.812Z,22.80
2022-12-11T00:35:00.467Z,22.17
2022-12-11T00:35:44.069Z,28.47
2022-12-11T00:36:27.245Z,27.17
2022-12-11T00:37:08.945Z,26.90
2022-12-11T00:37:50.636Z,25.63
2022-12-11T00:38:32.268Z,24.90
2022-12-11T00:39:13.847Z,23.33
2022-12-11T00:39:55.422Z,23.43
2022-12-11T00:40:37.443Z,24.90
2022-12-11T00:41:19.420Z,24.53
2022-12-11T00:42:01.044Z,26.67
2022-12-11T00:42:42.657Z,26.53
2022-12-11T00:43:24.263Z,26.67
2022-12-11T00:44:05.988Z,24.30
2022-12-11T00:44:47.742Z,25.43
2022-12-11T00:45:29.574Z,23.67
2022-12-11T00:46:11.907Z,22.83
2022-12-11T00:46:53.508Z,23.63
2022-12-11T00:47:35.091Z,25.07
2022-12-11T00:48:16.717Z,25.53
2022-12-11T00:48:58.370Z,25.33
2022-12-11T00:49:42.835Z,26.07
2022-12-11T00:50:27.508Z,23.73
2022-12-11T00:51:10.440Z,23.60
2022-12-11T00:51:52.096Z,24.13
2022-12-11T00:52:34.806Z,24.17
2022-12-11T00:53:16.443Z,23.63
2022-12-11T00:53:58.054Z,23.83
2022-12-11T00:54:39.706Z,24.30
2022-12-11T00:55:21.312Z,24.00
2022-12-11T00:56:13.241Z,23.50
2022-12-11T00:56:56.008Z,26.13
2022-12-11T00:57:37.640Z,24.50
2022-12-11T00:58:19.950Z,24.07
2022-12-11T00:59:01.634Z,24.63
2022-12-11T00:59:43.252Z,23.63
2022-12-11T01:00:24.998Z,24.00
2022-12-11T01:01:13.130Z,23.43
2022-12-11T01:01:54.830Z,21.07
2022-12-11T01:02:36.499Z,20.97
2022-12-11T01:03:18.164Z,22.10
2022-12-11T01:03:59.843Z,22.13
2022-12-11T01:04:41.486Z,21.57
2022-12-11T01:05:23.095Z,21.47
2022-12-11T01:06:05.335Z,19.80
2022-12-11T01:06:46.881Z,22.60
2022-12-11T01:07:28.440Z,21.83
2022-12-11T01:08:10.123Z,22.43
2022-12-11T01:09:12.496Z,21.87
2022-12-11T01:10:17.402Z,20.00
2022-12-11T01:11:04.917Z,19.73
2022-12-11T01:11:46.529Z,20.30
2022-12-11T01:12:28.533Z,22.47
2022-12-11T01:13:10.516Z,22.03
2022-12-11T01:13:52.100Z,21.70
2022-12-11T01:14:33.687Z,22.67
2022-12-11T01:15:15.396Z,22.60
2022-12-11T01:15:57.322Z,20.93
2022-12-11T01:16:39.031Z,22.33
2022-12-11T01:17:20.682Z,21.60
2022-12-11T01:18:02.254Z,23.20
2022-12-11T01:18:43.993Z,23.73
2022-12-11T01:19:25.640Z,21.87
2022-12-11T01:20:07.821Z,21.67
2022-12-11T01:20:49.442Z,22.30
2022-12-11T01:21:31.206Z,21.40
2022-12-11T01:22:12.825Z,20.93
2022-12-11T01:22:56.889Z,21.17
2022-12-11T01:23:39.958Z,21.70
2022-12-11T01:24:21.710Z,21.33
2022-12-11T01:25:03.857Z,19.87
2022-12-11T01:25:45.498Z,19.90
2022-12-11T01:26:27.253Z,19.20
2022-12-11T01:27:09.066Z,20.00
2022-12-11T01:27:52.149Z,19.17
2022-12-11T01:28:33.910Z,20.10
2022-12-11T01:29:15.964Z,20.07
2022-12-11T01:29:57.529Z,19.97
2022-12-11T01:30:41.791Z,20.53
2022-12-11T01:31:23.445Z,19.47
2022-12-11T01:32:05.110Z,19.58
2022-12-11T01:32:46.876Z,20.07
2022-12-11T01:33:29.193Z,21.23
2022-12-11T01:34:10.750Z,20.67
2022-12-11T01:34:52.417Z,20.70
2022-12-11T01:35:34.064Z,20.90
2022-12-11T01:36:18.785Z,20.57
2022-12-11T01:37:00.408Z,21.27
2022-12-11T01:37:42.040Z,21.13
2022-12-11T01:38:23.839Z,20.87
2022-12-11T01:39:05.446Z,21.40
2022-12-11T01:39:47.059Z,20.97
2022-12-11T01:40:29.145Z,19.13
2022-12-11T01:41:10.750Z,20.10
2022-12-11T01:42:00.733Z,20.97
2022-12-11T01:42:42.483Z,20.10
2022-12-11T01:43:24.130Z,20.43
2022-12-11T01:44:08.539Z,20.37
2022-12-11T01:44:50.101Z,20.93
2022-12-11T01:45:38.817Z,20.23
2022-12-11T01:46:20.620Z,21.33
2022-12-11T01:47:02.333Z,21.53
2022-12-11T01:47:44.250Z,21.37
2022-12-11T01:48:28.723Z,21.87
2022-12-11T01:49:17.363Z,21.37
2022-12-11T01:49:58.913Z,21.10
2022-12-11T01:50:53.364Z,21.00
2022-12-11T01:51:45.135Z,20.80
2022-12-11T01:52:26.852Z,20.77
2022-12-11T01:53:12.273Z,20.67
2022-12-11T01:53:59.306Z,21.67
2022-12-11T01:54:41.585Z,21.47
2022-12-11T01:55:23.622Z,20.20
2022-12-11T01:56:06.711Z,20.93
2022-12-11T01:56:51.575Z,21.07
2022-12-11T01:57:33.216Z,19.80
2022-12-11T01:58:18.405Z,19.70
2022-12-11T01:59:07.160Z,20.33
2022-12-11T01:59:48.903Z,21.63
2022-12-11T02:00:30.549Z,21.13
2022-12-11T02:01:20.575Z,20.17
2022-12-11T02:02:07.281Z,21.10
2022-12-11T02:02:49.021Z,21.37
2022-12-11T02:03:31.109Z,20.58
2022-12-11T02:04:14.242Z,20.53
2022-12-11T02:04:56.048Z,20.03
2022-12-11T02:05:37.841Z,21.73
2022-12-11T02:06:44.820Z,22.27
2022-12-11T02:07:26.536Z,19.43
2022-12-11T02:08:08.992Z,20.33
2022-12-11T02:08:50.670Z,20.13
2022-12-11T02:09:35.290Z,21.40
2022-12-11T02:10:17.441Z,21.07
2022-12-11T02:11:18.417Z,21.67
2022-12-11T02:12:46.554Z,19.40
2022-12-11T02:13:48.450Z,18.70
2022-12-11T02:15:05.337Z,19.37
2022-12-11T02:16:04.123Z,19.73
2022-12-11T02:17:17.242Z,19.30
2022-12-11T02:17:58.800Z,18.05
2022-12-11T02:18:55.025Z,19.30
2022-12-11T02:20:03.771Z,18.13
2022-12-11T02:21:06.555Z,18.43
2022-12-11T02:21:53.074Z,17.00
2022-12-11T02:22:43.846Z,17.67
2022-12-11T02:23:39.064Z,16.43
2022-12-11T02:24:41.274Z,17.20
2022-12-11T02:25:34.629Z,18.97
2022-12-11T02:26:50.985Z,18.70
2022-12-11T02:27:41.638Z,18.83
2022-12-11T02:28:41.774Z,19.40
2022-12-11T02:29:33.162Z,18.47
2022-12-11T02:30:16.488Z,19.23
2022-12-11T02:31:04.173Z,19.37
2022-12-11T02:31:53.633Z,19.20
2022-12-11T02:32:57.593Z,18.93
2022-12-11T02:33:50.683Z,19.43
2022-12-11T02:34:40.230Z,18.80
2022-12-11T02:35:36.201Z,19.50
2022-12-11T02:36:19.978Z,19.33
2022-12-11T02:37:06.866Z,19.30
2022-12-11T02:37:55.067Z,20.93
2022-12-11T02:38:41.802Z,20.10
2022-12-11T02:39:27.009Z,20.15
2022-12-11T02:40:12.566Z,20.60
2022-12-11T02:40:57.395Z,19.90
2022-12-11T02:41:43.163Z,20.40
2022-12-11T02:42:30.608Z,19.97
2022-12-11T02:43:16.337Z,19.43
2022-12-11T02:44:01.398Z,19.13
2022-12-11T02:44:44.619Z,19.60
2022-12-11T02:45:28.468Z,18.43
2022-12-11T02:46:10.965Z,18.30
2022-12-11T02:46:53.393Z,19.10
2022-12-11T02:47:37.287Z,19.20
2022-12-11T02:48:22.329Z,18.90
2022-12-11T02:49:07.553Z,20.13
2022-12-11T02:49:50.253Z,18.63
2022-12-11T02:50:36.104Z,19.75
2022-12-11T02:51:23.899Z,19.90
2022-12-11T02:52:07.314Z,18.73
2022-12-11T02:52:51.537Z,19.30
2022-12-11T02:53:37.749Z,19.43
2022-12-11T02:54:30.361Z,19.77
2022-12-11T02:55:15.327Z,18.83
2022-12-11T02:56:08.468Z,18.52
2022-12-11T02:56:57.496Z,18.20
2022-12-11T02:57:58.434Z,18.07
2022-12-11T02:58:51.549Z,19.30
2022-12-11T02:59:41.581Z,17.93
2022-12-11T03:00:23.959Z,18.17
2022-12-11T03:01:05.796Z,18.97
2022-12-11T03:01:47.852Z,18.53
2022-12-11T03:02:29.620Z,18.75
2022-12-11T03:03:12.305Z,17.77
2022-12-11T03:03:55.178Z,19.60
2022-12-11T03:04:37.291Z,18.77
2022-12-11T03:05:18.925Z,17.97
2022-12-11T03:06:00.509Z,18.53
2022-12-11T03:06:48.007Z,17.93
2022-12-11T03:07:34.019Z,19.70
2022-12-11T03:08:17.494Z,20.10
2022-12-11T03:08:59.279Z,21.33
2022-12-11T03:09:42.718Z,21.17
2022-12-11T03:10:24.370Z,20.70
2022-12-11T03:11:11.156Z,21.47
2022-12-11T03:11:52.807Z,22.37
2022-12-11T03:12:37.571Z,22.17
2022-12-11T03:13:22.613Z,22.70
2022-12-11T03:14:04.906Z,23.13
2022-12-11T03:14:48.809Z,22.97
2022-12-11T03:16:00.456Z,21.40
2022-12-11T03:16:52.290Z,21.13
2022-12-11T03:17:52.436Z,20.13
2022-12-11T03:18:50.245Z,22.07
2022-12-11T03:19:38.837Z,21.87
2022-12-11T03:20:40.927Z,20.30
2022-12-11T03:21:33.042Z,21.97
2022-12-11T03:22:54.026Z,22.40
2022-12-11T03:23:47.629Z,20.40
2022-12-11T03:24:39.994Z,20.63
2022-12-11T03:25:49.019Z,22.35
2022-12-11T03:26:37.267Z,19.27
2022-12-11T03:27:27.939Z,19.03
2022-12-11T03:28:19.413Z,18.67
2022-12-11T03:29:08.485Z,18.10
2022-12-11T03:30:02.225Z,18.83
2022-12-11T03:30:46.272Z,19.03
2022-12-11T03:31:41.030Z,21.20
2022-12-11T03:32:28.139Z,21.37
2022-12-11T03:33:23.655Z,21.40
2022-12-11T03:34:19.600Z,21.97
2022-12-11T03:35:11.946Z,22.43
2022-12-11T03:36:03.368Z,22.30
2022-12-11T03:36:47.392Z,23.20
2022-12-11T03:37:32.926Z,22.17
2022-12-11T03:38:38.846Z,23.73
2022-12-11T03:39:39.419Z,22.53
2022-12-11T03:40:23.426Z,23.17
2022-12-11T03:41:08.240Z,21.20
2022-12-11T03:41:51.992Z,22.67
2022-12-11T03:42:35.283Z,23.43
2022-12-11T03:43:17.946Z,22.63
2022-12-11T03:44:00.116Z,23.50
2022-12-11T03:44:46.532Z,23.43
2022-12-11T03:45:30.086Z,23.10
2022-12-11T03:46:14.976Z,23.10
2022-12-11T03:46:58.701Z,22.17
2022-12-11T03:47:43.191Z,23.33
2022-12-11T03:48:28.610Z,21.83
2022-12-11T03:49:17.818Z,22.67
2022-12-11T03:50:00.542Z,23.85
2022-12-11T03:50:43.476Z,23.50
2022-12-11T03:51:25.893Z,24.60
2022-12-11T03:52:10.401Z,24.30
2022-12-11T03:52:53.686Z,22.40
2022-12-11T03:53:37.262Z,23.90
2022-12-11T03:54:19.852Z,25.00
2022-12-11T03:55:04.495Z,23.97
2022-12-11T03:55:47.959Z,23.93
2022-12-11T03:56:32.874Z,23.80
2022-12-11T03:57:19.370Z,24.73
2022-12-11T03:58:01.218Z,24.13
2022-12-11T03:58:42.923Z,25.23
2022-12-11T03:59:24.909Z,25.10
2022-12-11T04:00:12.863Z,25.70
2022-12-11T04:00:54.511Z,24.83
2022-12-11T04:01:36.205Z,24.17
2022-12-11T04:02:17.881Z,23.67
2022-12-11T04:03:15.730Z,24.38
2022-12-11T04:03:57.463Z,24.95
2022-12-11T04:04:41.223Z,24.08
2022-12-11T04:05:22.802Z,24.03
2022-12-11T04:06:04.462Z,23.63
2022-12-11T04:06:46.124Z,23.27
2022-12-11T04:07:28.559Z,24.05
2022-12-11T04:08:10.702Z,21.80
2022-12-11T04:08:52.323Z,24.40
2022-12-11T04:09:34.416Z,24.40
2022-12-11T04:10:16.085Z,24.73
2022-12-11T04:11:16.502Z,24.80
2022-12-11T04:11:58.165Z,26.13
2022-12-11T04:12:39.724Z,25.77
2022-12-11T04:13:21.266Z,26.00
2022-12-11T04:14:25.920Z,26.67
2022-12-11T04:15:07.856Z,24.13
2022-12-11T04:15:49.577Z,25.33
2022-12-11T04:16:31.178Z,26.30
2022-12-11T04:17:32.787Z,24.70
2022-12-11T04:18:33.206Z,24.40
2022-12-11T04:19:33.801Z,24.87
2022-12-11T04:20:34.961Z,24.83
2022-12-11T04:21:39.267Z,23.83
2022-12-11T04:22:39.842Z,25.80
2022-12-11T04:23:39.867Z,24.23
2022-12-11T04:24:22.837Z,25.17
2022-12-11T04:25:06.829Z,23.93
2022-12-11T04:25:48.446Z,25.30
2022-12-11T04:26:30.029Z,23.30
2022-12-11T04:27:11.583Z,24.70
2022-12-11T04:27:53.247Z,24.70
2022-12-11T04:28:35.427Z,25.00
2022-12-11T04:29:17.009Z,26.30
2022-12-11T04:29:58.550Z,25.60
2022-12-11T04:30:40.119Z,26.67
2022-12-11T04:31:22.561Z,26.30
2022-12-11T04:32:04.347Z,26.73
2022-12-11T04:32:46.007Z,26.10
2022-12-11T04:33:28.149Z,26.13
2022-12-11T04:34:09.716Z,25.63
2022-12-11T04:34:51.266Z,25.83
2022-12-11T04:35:33.165Z,26.57
2022-12-11T04:36:15.250Z,26.85
2022-12-11T04:36:56.849Z,25.07
2022-12-11T04:37:39.223Z,26.27
2022-12-11T04:38:20.820Z,25.40
2022-12-11T04:39:04.493Z,25.60
2022-12-11T04:39:46.066Z,24.77
2022-12-11T04:40:27.672Z,25.58
2022-12-11T04:41:12.433Z,25.45
2022-12-11T04:41:54.066Z,25.17
2022-12-11T04:42:35.684Z,26.47
2022-12-11T04:43:17.238Z,25.23
2022-12-11T04:43:58.800Z,25.20
2022-12-11T04:44:40.409Z,26.47
2022-12-11T04:45:22.040Z,24.73
2022-12-11T04:46:12.982Z,25.57
2022-12-11T04:46:54.609Z,25.00
2022-12-11T04:47:37.624Z,25.92
2022-12-11T04:48:19.238Z,25.17
2022-12-11T04:49:00.957Z,25.17
2022-12-11T04:49:42.624Z,26.07
2022-12-11T04:50:24.220Z,25.47
2022-12-11T04:51:07.124Z,26.67
2022-12-11T04:51:48.904Z,26.70
2022-12-11T04:52:30.540Z,26.20
2022-12-11T04:53:12.109Z,26.10
2022-12-11T04:53:54.189Z,25.17
2022-12-11T04:54:35.788Z,25.60
2022-12-11T04:55:17.410Z,25.60
2022-12-11T04:55:59.111Z,25.90
2022-12-11T04:56:40.689Z,24.80
2022-12-11T04:57:22.369Z,26.40
2022-12-11T04:58:03.958Z,26.00
2022-12-11T04:58:46.833Z,27.20
2022-12-11T04:59:28.466Z,26.23
2022-12-11T05:00:11.939Z,27.67
2022-12-11T05:00:53.979Z,27.13
2022-12-11T05:01:35.615Z,27.40
2022-12-11T05:02:17.754Z,26.93
2022-12-11T05:02:59.393Z,26.30
2022-12-11T05:03:41.334Z,26.50
2022-12-11T05:04:22.970Z,26.10
2022-12-11T05:05:05.902Z,27.30
2022-12-11T05:05:49.425Z,27.27
2022-12-11T05:06:31.201Z,25.63
2022-12-11T05:07:12.817Z,26.23
2022-12-11T05:07:54.425Z,26.83
2022-12-11T05:08:38.497Z,27.20
2022-12-11T05:09:20.107Z,27.17
2022-12-11T05:10:02.101Z,26.70
2022-12-11T05:10:49.833Z,27.08
2022-12-11T05:11:32.025Z,25.33
2022-12-11T05:12:13.582Z,25.63
2022-12-11T05:12:55.141Z,25.88
2022-12-11T05:13:37.578Z,26.50
2022-12-11T05:14:19.197Z,25.07
2022-12-11T05:15:00.801Z,25.20
2022-12-11T05:15:42.390Z,26.10
2022-12-11T05:16:24.092Z,25.40
2022-12-11T05:17:05.818Z,25.70
2022-12-11T05:17:47.414Z,25.87
2022-12-11T05:18:28.997Z,24.63
2022-12-11T05:19:10.720Z,26.20
2022-12-11T05:19:52.280Z,26.07
2022-12-11T05:20:33.840Z,26.33
2022-12-11T05:21:15.834Z,27.07
2022-12-11T05:21:57.449Z,27.20
2022-12-11T05:22:39.486Z,24.60
2022-12-11T05:23:21.055Z,26.53
2022-12-11T05:24:03.439Z,26.43
2022-12-11T05:24:45.363Z,26.40
2022-12-11T05:25:26.962Z,26.30
2022-12-11T05:26:13.463Z,26.17
2022-12-11T05:26:55.019Z,25.70
2022-12-11T05:27:36.616Z,25.67
2022-12-11T05:28:18.190Z,26.43
2022-12-11T05:28:59.772Z,26.17
2022-12-11T05:29:42.097Z,25.50
2022-12-11T05:30:23.832Z,25.83
2022-12-11T05:31:08.443Z,26.57
2022-12-11T05:31:50.043Z,26.07
2022-12-11T05:32:31.593Z,26.73
2022-12-11T05:33:13.459Z,24.77
2022-12-11T05:33:55.137Z,25.63
2022-12-11T05:34:36.847Z,24.13
2022-12-11T05:35:18.505Z,23.67
2022-12-11T05:36:00.713Z,24.77
2022-12-11T05:36:42.527Z,23.80
2022-12-11T05:37:24.185Z,25.10
2022-12-11T05:38:05.814Z,25.20
2022-12-11T05:38:47.573Z,24.30
2022-12-11T05:39:29.461Z,23.10
2022-12-11T05:40:12.658Z,25.10
2022-12-11T05:41:05.796Z,23.97
2022-12-11T05:41:47.369Z,24.53
2022-12-11T05:42:29.314Z,24.07
2022-12-11T05:43:10.935Z,24.37
2022-12-11T05:43:52.770Z,24.10
2022-12-11T05:44:34.644Z,24.67
2022-12-11T05:45:16.347Z,23.70
2022-12-11T05:46:08.757Z,24.90
2022-12-11T05:46:50.502Z,23.40
2022-12-11T05:47:32.101Z,22.87
2022-12-11T05:48:13.662Z,23.03
2022-12-11T05:49:00.338Z,24.00
2022-12-11T05:49:41.992Z,22.90
2022-12-11T05:50:23.617Z,23.60
2022-12-11T05:51:07.019Z,22.67
2022-12-11T05:51:48.626Z,23.30
2022-12-11T05:52:31.795Z,23.67
2022-12-11T05:53:13.354Z,22.53
2022-12-11T05:53:55.982Z,23.63
2022-12-11T05:54:37.676Z,23.70
2022-12-11T05:55:19.219Z,22.87
2022-12-11T05:56:04.963Z,22.57
2022-12-11T05:56:49.237Z,21.90
2022-12-11T05:57:30.777Z,21.20
2022-12-11T05:58:12.393Z,21.73
2022-12-11T05:58:54.897Z,22.03
2022-12-11T05:59:36.458Z,23.10
2022-12-11T06:00:18.388Z,22.10
2022-12-11T06:01:01.097Z,21.10
2022-12-11T06:01:43.469Z,22.77
2022-12-11T06:02:25.335Z,22.60
2022-12-11T06:03:07.202Z,23.17
2022-12-11T06:03:48.979Z,24.43
2022-12-11T06:04:30.601Z,23.40
2022-12-11T06:05:12.458Z,22.50
2022-12-11T06:05:54.230Z,23.40
2022-12-11T06:06:36.349Z,22.70
2022-12-11T06:07:17.922Z,22.93
2022-12-11T06:07:59.525Z,22.37
2022-12-11T06:08:41.503Z,22.33
2022-12-11T06:09:23.118Z,23.83
2022-12-11T06:10:05.045Z,23.43
2022-12-11T06:10:47.906Z,24.23
2022-12-11T06:11:31.319Z,23.70
2022-12-11T06:12:12.890Z,22.83
2022-12-11T06:12:54.479Z,23.00
2022-12-11T06:13:36.784Z,23.83
2022-12-11T06:14:18.329Z,23.47
2022-12-11T06:14:59.938Z,23.33
2022-12-11T06:15:41.629Z,23.93
2022-12-11T06:16:24.602Z,23.70
2022-12-11T06:17:06.263Z,24.03
2022-12-11T06:17:47.908Z,22.00
2022-12-11T06:18:29.837Z,23.50
2022-12-11T06:19:15.185Z,23.33
2022-12-11T06:19:56.735Z,21.83
2022-12-11T06:20:38.453Z,23.25
2022-12-11T06:21:25.909Z,22.13
2022-12-11T06:22:07.533Z,22.50
2022-12-11T06:22:49.204Z,23.13
2022-12-11T06:23:30.803Z,21.87
2022-12-11T06:24:12.494Z,21.80
2022-12-11T06:24:54.132Z,22.30
2022-12-11T06:25:38.985Z,22.17
2022-12-11T06:26:21.389Z,21.40
2022-12-11T06:27:03.014Z,22.23
2022-12-11T06:27:44.613Z,22.73
2022-12-11T06:28:26.191Z,23.13
2022-12-11T06:29:12.636Z,23.37
2022-12-11T06:29:54.582Z,22.23
2022-12-11T06:30:39.153Z,22.73
2022-12-11T06:31:21.717Z,22.60
2022-12-11T06:32:03.588Z,22.33
2022-12-11T06:32:45.227Z,22.27
2022-12-11T06:33:27.187Z,22.10
2022-12-11T06:34:11.035Z,22.53
2022-12-11T06:34:52.726Z,23.17
2022-12-11T06:35:41.441Z,23.47
2022-12-11T06:36:24.924Z,22.70
2022-12-11T06:37:07.262Z,22.73
2022-12-11T06:37:49.022Z,23.07
2022-12-11T06:38:30.693Z,24.13
2022-12-11T06:39:12.289Z,23.48
2022-12-11T06:39:53.858Z,22.50
2022-12-11T06:40:35.409Z,23.80
2022-12-11T06:41:17.389Z,23.57
2022-12-11T06:41:58.989Z,23.17
2022-12-11T06:42:40.686Z,22.27
2022-12-11T06:43:22.466Z,23.93
2022-12-11T06:44:04.100Z,24.43
2022-12-11T06:44:45.678Z,22.10
2022-12-11T06:45:27.335Z,22.73
2022-12-11T06:46:15.323Z,22.90
2022-12-11T06:46:57.130Z,21.73
2022-12-11T06:47:38.804Z,22.70
2022-12-11T06:48:20.852Z,22.50
2022-12-11T06:49:05.056Z,23.17
2022-12-11T06:49:46.590Z,23.87
2022-12-11T06:50:28.258Z,21.80
2022-12-11T06:51:15.638Z,22.50
2022-12-11T06:51:57.359Z,23.47
2022-12-11T06:52:38.974Z,22.60
2022-12-11T06:53:20.573Z,22.00
2022-12-11T06:54:02.248Z,21.83
2022-12-11T06:54:43.806Z,21.92
2022-12-11T06:55:25.436Z,23.30
2022-12-11T06:56:10.031Z,22.60
2022-12-11T06:56:51.670Z,21.83
2022-12-11T06:57:33.474Z,21.90
2022-12-11T06:58:17.938Z,23.23
2022-12-11T06:59:04.215Z,22.13
2022-12-11T06:59:48.746Z,20.90
2022-12-11T07:00:30.460Z,24.57
2022-12-11T07:01:19.385Z,25.93
2022-12-11T07:02:01.036Z,24.17
2022-12-11T07:02:42.747Z,24.33
2022-12-11T07:03:24.333Z,22.50
2022-12-11T07:04:05.901Z,22.57
2022-12-11T07:04:51.825Z,20.80
2022-12-11T07:05:36.437Z,22.20
2022-12-11T07:06:18.019Z,21.97
2022-12-11T07:06:59.638Z,21.53
2022-12-11T07:07:41.242Z,22.80
2022-12-11T07:08:22.969Z,20.07
2022-12-11T07:09:05.742Z,22.53
2022-12-11T07:09:47.440Z,22.17
2022-12-11T07:10:29.146Z,21.93
2022-12-11T07:11:13.250Z,22.37
2022-12-11T07:11:54.811Z,21.73
2022-12-11T07:12:36.741Z,21.47
2022-12-11T07:13:18.318Z,22.10
2022-12-11T07:14:00.696Z,22.33
2022-12-11T07:14:42.307Z,20.73
2022-12-11T07:15:23.866Z,21.17
2022-12-11T07:16:10.644Z,21.80
2022-12-11T07:16:52.746Z,21.70
2022-12-11T07:17:34.382Z,21.47
2022-12-11T07:18:15.957Z,22.00
2022-12-11T07:18:57.567Z,21.58
2022-12-11T07:19:43.464Z,21.13
2022-12-11T07:20:25.075Z,22.33
2022-12-11T07:21:08.174Z,23.23
2022-12-11T07:21:49.765Z,23.33
2022-12-11T07:22:31.377Z,21.67
2022-12-11T07:23:12.917Z,21.47
2022-12-11T07:23:54.639Z,21.53
2022-12-11T07:24:39.122Z,23.40
2022-12-11T07:25:20.695Z,22.70
2022-12-11T07:26:11.281Z,22.80
2022-12-11T07:26:52.979Z,22.67
2022-12-11T07:27:34.830Z,22.33
2022-12-11T07:28:16.948Z,23.13
2022-12-11T07:28:59.918Z,20.63
2022-12-11T07:29:41.498Z,22.43
2022-12-11T07:30:23.142Z,24.05
2022-12-11T07:31:09.050Z,23.27
2022-12-11T07:31:50.779Z,22.80
2022-12-11T07:32:32.530Z,23.03
2022-12-11T07:33:14.361Z,22.07
2022-12-11T07:33:57.843Z,23.10
2022-12-11T07:34:40.097Z,23.07
2022-12-11T07:35:21.729Z,22.63
2022-12-11T07:36:05.863Z,22.67
2022-12-11T07:36:47.454Z,22.57
2022-12-11T07:37:29.075Z,22.93
2022-12-11T07:38:10.751Z,22.73
2022-12-11T07:38:53.227Z,24.80
2022-12-11T07:39:34.984Z,31.80
2022-12-11T07:40:16.931Z,35.07
2022-12-11T07:41:03.365Z,34.97
2022-12-11T07:41:45.917Z,36.40
2022-12-11T07:42:28.621Z,34.73
2022-12-11T07:43:10.219Z,37.30
2022-12-11T07:43:51.804Z,47.27
2022-12-11T07:44:33.362Z,26.53
2022-12-11T07:45:14.970Z,22.57
2022-12-11T07:46:04.958Z,22.03
2022-12-11T07:46:46.615Z,23.43
2022-12-11T07:47:28.258Z,22.73
2022-12-11T07:48:09.819Z,23.13
2022-12-11T07:48:51.791Z,22.67
2022-12-11T07:49:33.409Z,22.70
2022-12-11T07:50:16.478Z,23.70
2022-12-11T07:51:10.459Z,22.83
2022-12-11T07:51:52.064Z,22.40
2022-12-11T07:52:34.412Z,22.60
2022-12-11T07:53:16.001Z,22.90
2022-12-11T07:54:03.722Z,22.17
2022-12-11T07:54:45.292Z,22.57
2022-12-11T07:55:26.914Z,22.60
2022-12-11T07:56:08.602Z,22.47
2022-12-11T07:56:53.726Z,22.00
2022-12-11T07:57:35.713Z,21.40
2022-12-11T07:58:17.378Z,21.53
2022-12-11T07:59:00.633Z,22.07
2022-12-11T07:59:42.203Z,22.20
2022-12-11T08:00:23.845Z,21.93
2022-12-11T08:01:20.509Z,21.20
2022-12-11T08:02:02.210Z,22.17
2022-12-11T08:02:43.909Z,22.03
2022-12-11T08:03:25.661Z,22.60
2022-12-11T08:04:09.345Z,22.23
2022-12-11T08:04:50.962Z,21.97
2022-12-11T08:05:32.534Z,22.07
2022-12-11T08:06:14.634Z,22.63
2022-12-11T08:06:57.668Z,22.43
2022-12-11T08:07:39.717Z,21.33
2022-12-11T08:08:21.433Z,21.97
2022-12-11T08:09:06.288Z,22.50
2022-12-11T08:09:47.892Z,19.73
2022-12-11T08:10:29.565Z,22.07
2022-12-11T08:11:13.785Z,21.60
2022-12-11T08:11:56.120Z,21.20
2022-12-11T08:12:38.344Z,21.03
2022-12-11T08:13:19.920Z,19.50
2022-12-11T08:14:02.401Z,20.27
2022-12-11T08:14:44.491Z,19.47
2022-12-11T08:15:26.088Z,20.77
2022-12-11T08:16:11.155Z,19.80
2022-12-11T08:16:52.799Z,20.43
2022-12-11T08:17:39.868Z,20.43
2022-12-11T08:18:21.966Z,19.83
2022-12-11T08:19:03.692Z,20.93
2022-12-11T08:19:45.319Z,20.60
2022-12-11T08:20:27.026Z,20.93
2022-12-11T08:21:17.761Z,21.87
2022-12-11T08:21:59.411Z,21.07
2022-12-11T08:22:43.180Z,20.67
2022-12-11T08:23:27.308Z,21.13
2022-12-11T08:24:10.139Z,21.33
2022-12-11T08:24:51.847Z,21.83
2022-12-11T08:25:33.488Z,23.13
2022-12-11T08:26:18.093Z,22.07
2022-12-11T08:26:59.656Z,20.97
2022-12-11T08:27:41.328Z,21.42
2022-12-11T08:28:22.934Z,22.70
2022-12-11T08:29:04.933Z,22.27
2022-12-11T08:29:48.865Z,23.27
2022-12-11T08:30:30.626Z,21.33
2022-12-11T08:31:14.198Z,21.43
2022-12-11T08:31:55.892Z,23.00
2022-12-11T08:32:37.876Z,20.30
2022-12-11T08:33:19.928Z,21.17
2022-12-11T08:34:01.935Z,21.97
2022-12-11T08:34:46.290Z,20.97
2022-12-11T08:35:27.919Z,21.73
2022-12-11T08:36:12.970Z,22.67
2022-12-11T08:36:54.688Z,23.17
2022-12-11T08:37:36.284Z,22.27
2022-12-11T08:38:23.670Z,23.40
2022-12-11T08:39:06.907Z,22.50
2022-12-11T08:39:48.585Z,21.40
2022-12-11T08:40:30.207Z,22.33
2022-12-11T08:41:17.971Z,21.87
2022-12-11T08:41:59.637Z,20.80
2022-12-11T08:42:41.223Z,21.90
2022-12-11T08:43:22.824Z,25.90
2022-12-11T08:44:05.953Z,25.37
2022-12-11T08:44:47.786Z,25.77
2022-12-11T08:45:29.730Z,23.53
2022-12-11T08:46:12.257Z,22.40
2022-12-11T08:46:53.941Z,22.07
2022-12-11T08:47:36.051Z,22.87
2022-12-11T08:48:17.642Z,22.23
2022-12-11T08:49:02.683Z,22.07
2022-12-11T08:49:44.410Z,22.13
2022-12-11T08:50:27.095Z,22.70
2022-12-11T08:51:13.502Z,21.27
2022-12-11T08:51:55.071Z,20.63
2022-12-11T08:52:39.583Z,21.63
2022-12-11T08:53:21.198Z,20.90
2022-12-11T08:54:02.899Z,21.07
2022-12-11T08:54:48.257Z,21.60
2022-12-11T08:55:29.936Z,19.97
2022-12-11T08:56:14.465Z,20.67
2022-12-11T08:56:58.117Z,20.77
2022-12-11T08:57:40.104Z,20.67
2022-12-11T08:58:21.691Z,20.83
2022-12-11T08:59:04.083Z,21.23
2022-12-11T08:59:45.682Z,19.97
2022-12-11T09:00:27.568Z,19.70
2022-12-11T09:01:14.726Z,19.43
2022-12-11T09:01:56.417Z,21.30
2022-12-11T09:02:38.282Z,21.67
2022-12-11T09:03:19.983Z,21.73
2022-12-11T09:04:01.687Z,23.43
2022-12-11T09:04:43.369Z,21.77
2022-12-11T09:05:25.981Z,21.20
2022-12-11T09:06:10.142Z,20.30
2022-12-11T09:06:51.779Z,22.63
2022-12-11T09:07:34.627Z,22.97
2022-12-11T09:08:16.378Z,21.10
2022-12-11T09:09:00.708Z,21.37
2022-12-11T09:09:42.369Z,21.27
2022-12-11T09:10:24.070Z,20.90
2022-12-11T09:11:08.130Z,20.37
2022-12-11T09:11:49.824Z,19.03
2022-12-11T09:12:33.000Z,18.57
2022-12-11T09:13:14.600Z,19.27
2022-12-11T09:13:56.349Z,18.50
2022-12-11T09:14:37.916Z,19.07
2022-12-11T09:15:19.776Z,18.73
2022-12-11T09:16:04.565Z,18.47
2022-12-11T09:16:46.439Z,19.80
2022-12-11T09:17:28.068Z,18.77
2022-12-11T09:18:09.747Z,20.10
2022-12-11T09:18:53.618Z,19.83
2022-12-11T09:19:35.320Z,19.00
2022-12-11T09:20:17.059Z,19.73
2022-12-11T09:21:00.713Z,19.27
2022-12-11T09:21:44.020Z,19.17
2022-12-11T09:22:25.605Z,18.63
2022-12-11T09:23:07.207Z,18.50
2022-12-11T09:23:49.326Z,19.47
2022-12-11T09:24:31.009Z,18.77
2022-12-11T09:25:12.905Z,19.37
2022-12-11T09:25:54.953Z,19.40
2022-12-11T09:26:36.598Z,20.47
2022-12-11T09:27:21.150Z,19.00
2022-12-11T09:28:02.760Z,20.30